createdAt,value
2018-02-23T00:00:35.536Z,-1.40
2018-02-23T00:03:04.598Z,-1.10
2018-02-23T00:05:33.920Z,-1.10
2018-02-23T00:08:03.709Z,-0.80
2018-02-23T00:10:32.259Z,-0.60
2018-02-23T00:13:06.951Z,-0.50
2018-02-23T00:15:37.632Z,-0.50
2018-02-23T00:18:06.183Z,-0.60
2018-02-23T00:20:36.957Z,-0.70
2018-02-23T00:23:05.277Z,-0.80
2018-02-23T00:25:36.087Z,-0.80
2018-02-23T00:28:08.967Z,-0.90
2018-02-23T00:30:38.756Z,-0.90
2018-02-23T00:33:07.216Z,-1.00
2018-02-23T00:35:36.068Z,-1.10
2018-02-23T00:38:05.165Z,-1.20
2018-02-23T00:40:37.213Z,-1.30
2018-02-23T00:43:05.505Z,-1.50
2018-02-23T00:45:40.825Z,-1.50
2018-02-23T00:48:10.675Z,-1.50
2018-02-23T00:50:42.746Z,-1.90
2018-02-23T00:53:18.240Z,-1.90
2018-02-23T00:55:52.624Z,-2.10
2018-02-23T00:58:26.743Z,-2.20
2018-02-23T01:00:55.935Z,-2.30
2018-02-23T01:03:25.274Z,-2.40
2018-02-23T01:05:54.298Z,-2.50
2018-02-23T01:08:22.733Z,-2.50
2018-02-23T01:10:59.358Z,-2.70
2018-02-23T01:13:29.188Z,-2.70
2018-02-23T01:15:57.869Z,-2.80
2018-02-23T01:18:26.878Z,-2.90
2018-02-23T01:21:25.739Z,-3.00
2018-02-23T01:23:55.069Z,-3.00
2018-02-23T01:26:23.357Z,-3.10
2018-02-23T01:28:51.650Z,-3.10
2018-02-23T01:31:23.616Z,-3.20
2018-02-23T01:33:53.139Z,-3.20
2018-02-23T01:36:23.016Z,-3.30
2018-02-23T01:38:56.016Z,-3.30
2018-02-23T01:41:24.781Z,-3.40
2018-02-23T01:43:54.811Z,-3.40
2018-02-23T01:46:24.554Z,-3.40
2018-02-23T01:48:52.890Z,-3.40
2018-02-23T01:51:34.397Z,-3.40
2018-02-23T01:54:03.297Z,-3.40
2018-02-23T01:56:33.360Z,-3.40
2018-02-23T01:59:01.960Z,-3.50
2018-02-23T02:01:31.710Z,-3.50
2018-02-23T02:04:02.964Z,-3.50
2018-02-23T02:06:37.893Z,-3.60
2018-02-23T02:09:11.258Z,-3.60
2018-02-23T02:11:44.256Z,-3.60
2018-02-23T02:14:19.725Z,-3.60
2018-02-23T02:16:50.587Z,-3.60
2018-02-23T02:19:19.426Z,-3.60
2018-02-23T02:22:23.105Z,-3.70
2018-02-23T02:24:51.713Z,-3.70
2018-02-23T02:27:20.849Z,-3.70
2018-02-23T02:29:53.432Z,-3.80
2018-02-23T02:32:22.626Z,-3.80
2018-02-23T02:34:56.780Z,-3.70
2018-02-23T02:37:32.533Z,-3.70
2018-02-23T02:40:03.009Z,-3.80
2018-02-23T02:42:38.080Z,-3.70
2018-02-23T02:45:06.418Z,-3.70
2018-02-23T02:47:34.704Z,-3.70
2018-02-23T02:50:02.993Z,-3.80
2018-02-23T02:52:46.687Z,-3.90
2018-02-23T02:55:19.835Z,-3.90
2018-02-23T02:57:51.739Z,-3.90
2018-02-23T03:00:20.882Z,-3.90
2018-02-23T03:02:50.334Z,-3.90
2018-02-23T03:05:20.950Z,-4.00
2018-02-23T03:07:49.478Z,-4.10
2018-02-23T03:10:18.636Z,-4.10
2018-02-23T03:12:54.235Z,-4.10
2018-02-23T03:15:26.029Z,-4.10
2018-02-23T03:17:54.695Z,-4.00
2018-02-23T03:20:25.983Z,-4.00
2018-02-23T03:22:57.919Z,-4.00
2018-02-23T03:25:27.030Z,-4.00
2018-02-23T03:28:03.143Z,-4.00
2018-02-23T03:30:33.741Z,-4.00
2018-02-23T03:33:03.256Z,-4.10
2018-02-23T03:35:32.711Z,-4.10
2018-02-23T03:38:00.994Z,-4.10
2018-02-23T03:40:34.741Z,-4.20
2018-02-23T03:43:10.168Z,-4.30
2018-02-23T03:45:46.028Z,-4.30
2018-02-23T03:48:20.382Z,-4.30
2018-02-23T03:50:54.616Z,-4.30
2018-02-23T03:53:44.510Z,-4.30
2018-02-23T03:56:13.918Z,-4.40
2018-02-23T03:58:44.437Z,-4.40
2018-02-23T04:01:23.039Z,-4.50
2018-02-23T04:03:56.065Z,-4.50
2018-02-23T04:06:30.286Z,-4.50
2018-02-23T04:09:04.624Z,-4.50
2018-02-23T04:11:49.682Z,-4.50
2018-02-23T04:14:18.559Z,-4.50
2018-02-23T04:16:48.392Z,-4.60
2018-02-23T04:19:26.699Z,-4.60
2018-02-23T04:21:56.855Z,-4.60
2018-02-23T04:24:33.393Z,-4.60
2018-02-23T04:27:06.892Z,-4.60
2018-02-23T04:29:42.326Z,-4.60
2018-02-23T04:32:15.640Z,-4.60
2018-02-23T04:34:49.742Z,-4.60
2018-02-23T04:37:19.980Z,-4.70
2018-02-23T04:39:49.246Z,-4.70
2018-02-23T04:42:18.556Z,-4.70
2018-02-23T04:44:47.787Z,-4.70
2018-02-23T04:47:17.099Z,-4.70
2018-02-23T04:49:45.394Z,-4.70
2018-02-23T04:52:14.955Z,-4.70
2018-02-23T04:55:04.095Z,-4.70
2018-02-23T04:57:33.113Z,-4.80
2018-02-23T05:00:01.733Z,-4.80
2018-02-23T05:02:30.668Z,-4.80
2018-02-23T05:05:06.469Z,-4.80
2018-02-23T05:07:38.989Z,-4.80
2018-02-23T05:10:13.486Z,-4.90
2018-02-23T05:12:42.165Z,-5.00
2018-02-23T05:15:11.492Z,-5.00
2018-02-23T05:17:40.670Z,-4.90
2018-02-23T05:20:17.276Z,-4.90
2018-02-23T05:22:50.540Z,-4.80
2018-02-23T05:25:25.342Z,-4.80
2018-02-23T05:27:53.862Z,-4.90
2018-02-23T05:30:22.913Z,-4.90
2018-02-23T05:32:51.200Z,-4.90
2018-02-23T05:35:19.480Z,-4.90
2018-02-23T05:37:59.280Z,-4.90
2018-02-23T05:40:28.584Z,-4.90
2018-02-23T05:43:01.081Z,-4.90
2018-02-23T05:45:29.362Z,-4.90
2018-02-23T05:47:59.135Z,-4.90
2018-02-23T05:50:28.198Z,-5.00
2018-02-23T05:52:56.501Z,-5.00
2018-02-23T05:55:29.117Z,-5.10
2018-02-23T06:30:13.129Z,-5.10
2018-02-23T06:32:43.490Z,-5.30
2018-02-23T06:35:11.775Z,-5.30
2018-02-23T06:37:40.052Z,-5.30
2018-02-23T06:40:08.335Z,-5.40
2018-02-23T06:42:37.676Z,-5.30
2018-02-23T06:45:05.997Z,-5.40
2018-02-23T06:47:34.569Z,-5.40
2018-02-23T06:50:04.180Z,-5.40
2018-02-23T06:52:46.480Z,-5.40
2018-02-23T06:55:17.824Z,-5.40
2018-02-23T06:57:46.410Z,-5.40
2018-02-23T07:00:14.741Z,-5.30
2018-02-23T07:02:49.776Z,-5.20
2018-02-23T07:05:23.260Z,-5.30
2018-02-23T07:07:51.538Z,-5.10
2018-02-23T07:10:19.814Z,-5.20
2018-02-23T07:12:48.093Z,-5.10
2018-02-23T07:15:18.061Z,-5.10
2018-02-23T07:17:48.075Z,-5.10
2018-02-23T07:20:24.793Z,-5.00
2018-02-23T07:23:01.168Z,-5.00
2018-02-23T07:25:29.463Z,-5.00
2018-02-23T07:31:19.654Z,-4.80
2018-02-23T07:33:53.307Z,-4.70
2018-02-23T07:36:22.864Z,-4.60
2018-02-23T07:38:56.649Z,-4.40
2018-02-23T07:41:25.220Z,-4.20
2018-02-23T07:43:55.607Z,-4.10
2018-02-23T07:46:23.888Z,-3.90
2018-02-23T07:48:53.875Z,-3.70
2018-02-23T07:51:23.114Z,-3.70
2018-02-23T07:53:54.464Z,-3.60
2018-02-23T07:56:30.738Z,-3.50
2018-02-23T07:59:03.698Z,-3.40
2018-02-23T08:01:37.369Z,-3.30
2018-02-23T08:04:10.861Z,-3.20
2018-02-23T08:06:45.078Z,-3.20
2018-02-23T08:09:20.043Z,-3.10
2018-02-23T08:11:49.248Z,-3.00
2018-02-23T08:14:18.346Z,-2.90
2018-02-23T08:16:50.735Z,-2.80
2018-02-23T08:19:19.044Z,-2.80
2018-02-23T08:21:47.318Z,-2.70
2018-02-23T08:24:15.593Z,-2.60
2018-02-23T08:26:50.574Z,-2.60
2018-02-23T08:29:43.749Z,-2.20
2018-02-23T08:32:12.042Z,-2.20
2018-02-23T08:34:42.006Z,-2.00
2018-02-23T08:37:17.553Z,-1.60
2018-02-23T08:39:51.760Z,-1.60
2018-02-23T08:42:28.894Z,-1.20
2018-02-23T08:45:01.367Z,-0.40
2018-02-23T08:47:29.671Z,-0.40
2018-02-23T08:49:57.962Z,-0.40
2018-02-23T08:52:26.250Z,-0.30
2018-02-23T08:54:54.558Z,0.00
2018-02-23T08:57:26.219Z,0.20
2018-02-23T09:00:21.419Z,0.20
2018-02-23T09:02:50.291Z,0.30
2018-02-23T09:05:18.616Z,0.40
2018-02-23T09:07:51.188Z,0.70
2018-02-23T09:10:27.080Z,1.00
2018-02-23T09:13:01.211Z,1.20
2018-02-23T09:15:35.985Z,1.60
2018-02-23T09:18:10.085Z,1.60
2018-02-23T09:20:40.307Z,2.10
2018-02-23T09:23:08.913Z,2.10
2018-02-23T09:25:38.308Z,2.30
2018-02-23T09:28:06.785Z,2.40
2018-02-23T09:30:35.803Z,2.30
2018-02-23T09:33:12.229Z,2.50
2018-02-23T09:35:43.095Z,2.50
2018-02-23T09:38:14.922Z,2.70
2018-02-23T09:40:43.208Z,2.60
2018-02-23T09:43:11.760Z,2.80
2018-02-23T09:45:40.040Z,2.60
2018-02-23T09:48:08.334Z,2.30
2018-02-23T09:50:37.005Z,2.20
2018-02-23T09:53:09.835Z,2.20
2018-02-23T09:55:40.979Z,2.30
2018-02-23T09:58:09.892Z,2.30
2018-02-23T10:00:59.287Z,2.60
2018-02-23T10:03:27.837Z,3.20
2018-02-23T10:05:57.616Z,3.10
2018-02-23T10:08:27.339Z,3.00
2018-02-23T10:10:59.348Z,2.80
2018-02-23T10:13:28.226Z,2.80
2018-02-23T10:15:58.539Z,3.00
2018-02-23T10:18:27.523Z,3.20
2018-02-23T10:20:55.869Z,3.20
2018-02-23T10:23:31.972Z,3.40
2018-02-23T10:26:01.013Z,3.50
2018-02-23T10:28:33.624Z,3.40
2018-02-23T10:31:04.948Z,3.50
2018-02-23T10:33:33.630Z,3.60
2018-02-23T10:36:01.920Z,3.50
2018-02-23T10:38:33.187Z,3.50
2018-02-23T10:41:06.677Z,3.40
2018-02-23T10:43:37.735Z,3.80
2018-02-23T10:46:10.375Z,3.80
2018-02-23T10:48:38.732Z,3.90
2018-02-23T10:51:07.012Z,3.70
2018-02-23T10:53:36.376Z,3.40
2018-02-23T10:56:07.041Z,3.20
2018-02-23T10:58:39.344Z,3.40
2018-02-23T11:01:10.840Z,3.40
2018-02-23T11:03:39.406Z,3.40
2018-02-23T11:06:08.523Z,3.30
2018-02-23T11:08:39.357Z,3.30
2018-02-23T11:11:07.638Z,3.20
2018-02-23T11:13:38.646Z,3.20
2018-02-23T11:16:30.155Z,3.50
2018-02-23T11:18:58.436Z,3.50
2018-02-23T11:21:26.880Z,3.90
2018-02-23T11:23:58.116Z,3.90
2018-02-23T11:26:28.094Z,3.90
2018-02-23T11:28:56.911Z,4.00
2018-02-23T11:31:25.327Z,4.00
2018-02-23T11:33:55.736Z,4.20
2018-02-23T11:36:24.000Z,4.30
2018-02-23T11:38:52.264Z,4.40
2018-02-23T11:41:20.542Z,4.30
2018-02-23T11:43:49.189Z,4.00
2018-02-23T11:46:17.476Z,4.10
2018-02-23T11:48:48.064Z,4.00
2018-02-23T11:51:16.346Z,4.00
2018-02-23T11:53:45.084Z,3.90
2018-02-23T11:56:13.746Z,3.90
2018-02-23T11:58:42.010Z,3.90
2018-02-23T12:01:23.692Z,3.80
2018-02-23T12:03:53.235Z,3.90
2018-02-23T12:06:23.874Z,4.20
2018-02-23T12:08:54.247Z,4.10
2018-02-23T12:11:24.075Z,4.60
2018-02-23T12:13:54.825Z,4.70
2018-02-23T12:16:35.569Z,5.10
2018-02-23T12:19:04.431Z,4.90
2018-02-23T12:21:33.470Z,4.80
2018-02-23T12:24:04.167Z,4.90
2018-02-23T12:26:32.442Z,5.00
2018-02-23T12:29:00.721Z,4.70
2018-02-23T12:32:09.799Z,4.40
2018-02-23T12:34:51.614Z,5.00
2018-02-23T12:37:20.486Z,4.90
2018-02-23T12:39:50.383Z,4.80
2018-02-23T12:42:20.454Z,4.70
2018-02-23T12:44:48.911Z,4.40
2018-02-23T12:47:17.722Z,4.30
2018-02-23T12:49:46.910Z,4.60
2018-02-23T12:52:23.969Z,5.50
2018-02-23T12:54:58.158Z,5.50
2018-02-23T12:57:34.002Z,5.50
2018-02-23T13:00:06.826Z,5.50
2018-02-23T13:02:36.606Z,5.30
2018-02-23T13:05:05.067Z,5.00
2018-02-23T13:07:33.343Z,4.70
2018-02-23T13:10:06.905Z,4.90
2018-02-23T13:12:37.259Z,4.90
2018-02-23T13:15:13.445Z,5.10
2018-02-23T13:17:44.395Z,5.10
2018-02-23T13:20:12.692Z,5.10
2018-02-23T13:22:44.171Z,5.20
2018-02-23T13:25:13.224Z,5.20
2018-02-23T13:27:57.563Z,5.00
2018-02-23T13:30:26.289Z,5.00
2018-02-23T13:32:55.636Z,5.20
2018-02-23T13:35:26.091Z,5.10
2018-02-23T13:37:54.383Z,5.00
2018-02-23T13:40:22.662Z,4.70
2018-02-23T13:42:55.950Z,4.50
2018-02-23T13:45:28.568Z,4.40
2018-02-23T13:48:00.654Z,4.30
2018-02-23T13:50:28.950Z,4.40
2018-02-23T13:52:57.987Z,4.40
2018-02-23T13:55:27.980Z,4.40
2018-02-23T13:57:56.264Z,4.40
2018-02-23T14:00:25.800Z,4.60
2018-02-23T14:02:57.418Z,4.70
2018-02-23T14:05:33.557Z,4.30
2018-02-23T14:08:02.597Z,4.30
2018-02-23T14:10:30.930Z,4.60
2018-02-23T14:12:59.967Z,4.80
2018-02-23T14:15:28.246Z,4.80
2018-02-23T14:17:56.985Z,5.10
2018-02-23T14:20:28.723Z,5.10
2018-02-23T14:22:57.642Z,5.10
2018-02-23T14:25:25.926Z,5.00
2018-02-23T14:27:54.211Z,5.10
2018-02-23T14:30:23.399Z,4.90
2018-02-23T14:32:55.388Z,4.60
2018-02-23T14:35:24.534Z,4.50
2018-02-23T14:37:53.264Z,4.80
2018-02-23T14:40:21.560Z,4.80
2018-02-23T14:42:49.823Z,5.10
2018-02-23T14:45:18.150Z,5.30
2018-02-23T14:47:50.948Z,5.10
2018-02-23T14:50:32.674Z,4.70
2018-02-23T14:53:01.701Z,4.70
2018-02-23T14:55:31.671Z,4.70
2018-02-23T14:58:00.495Z,5.00
2018-02-23T15:00:28.761Z,5.30
2018-02-23T15:02:59.752Z,5.60
2018-02-23T15:05:29.936Z,5.60
2018-02-23T15:07:59.742Z,5.30
2018-02-23T15:10:28.106Z,5.30
2018-02-23T15:12:56.407Z,5.30
2018-02-23T15:15:25.753Z,5.20
2018-02-23T15:17:54.730Z,5.00
2018-02-23T15:20:25.241Z,4.80
2018-02-23T15:22:56.381Z,4.70
2018-02-23T15:25:25.496Z,4.60
2018-02-23T15:27:57.038Z,4.50
2018-02-23T15:33:29.307Z,4.60
2018-02-23T15:36:20.073Z,4.40
2018-02-23T15:38:49.779Z,4.40
2018-02-23T15:41:19.671Z,4.30
2018-02-23T15:43:48.908Z,4.30
2018-02-23T15:46:17.210Z,4.20
2018-02-23T15:51:53.972Z,4.10
2018-02-23T15:54:23.018Z,4.10
2018-02-23T15:56:52.493Z,4.10
2018-02-23T15:59:27.158Z,4.10
2018-02-23T16:01:55.923Z,4.10
2018-02-23T16:04:25.700Z,4.00
2018-02-23T16:06:56.026Z,3.90
2018-02-23T16:09:25.555Z,3.90
2018-02-23T16:11:53.844Z,3.90
2018-02-23T16:14:23.332Z,3.80
2018-02-23T16:16:52.262Z,3.70
2018-02-23T16:19:21.719Z,3.60
2018-02-23T16:21:50.797Z,3.60
2018-02-23T16:24:23.645Z,3.50
2018-02-23T16:26:55.912Z,3.30
2018-02-23T16:29:25.502Z,3.20
2018-02-23T16:31:54.315Z,3.20
2018-02-23T16:34:22.582Z,3.10
2018-02-23T16:36:51.416Z,3.10
2018-02-23T16:39:27.015Z,2.90
2018-02-23T16:41:55.283Z,2.90
2018-02-23T16:44:28.433Z,2.90
2018-02-23T16:46:59.304Z,2.90
2018-02-23T16:49:27.985Z,2.90
2018-02-23T16:51:57.613Z,2.80
2018-02-23T16:54:25.886Z,2.90
2018-02-23T16:56:55.066Z,2.90
2018-02-23T16:59:23.355Z,2.90
2018-02-23T17:01:52.862Z,2.90
2018-02-23T17:04:21.150Z,2.80
2018-02-23T17:06:50.200Z,2.80
2018-02-23T17:09:22.203Z,2.80
2018-02-23T17:11:50.861Z,2.70
2018-02-23T17:14:19.166Z,2.80
2018-02-23T17:16:48.033Z,2.70
2018-02-23T17:19:16.359Z,2.70
2018-02-23T17:21:44.638Z,2.50
2018-02-23T17:24:13.693Z,2.60
2018-02-23T17:26:47.045Z,2.50
2018-02-23T17:29:15.391Z,2.30
2018-02-23T17:31:46.814Z,2.40
2018-02-23T17:34:15.372Z,2.20
2018-02-23T17:37:06.070Z,2.10
2018-02-23T17:39:39.507Z,1.90
2018-02-23T17:42:11.370Z,1.90
2018-02-23T17:44:39.696Z,1.90
2018-02-23T17:47:07.994Z,1.90
2018-02-23T17:49:38.359Z,1.80
2018-02-23T17:52:31.307Z,1.70
2018-02-23T17:55:02.732Z,1.70
2018-02-23T17:57:39.995Z,1.70
2018-02-23T18:00:13.002Z,1.60
2018-02-23T18:02:41.364Z,1.50
2018-02-23T18:05:10.343Z,1.50
2018-02-23T18:07:39.994Z,1.50
2018-02-23T18:10:09.288Z,1.40
2018-02-23T18:12:37.553Z,1.40
2018-02-23T18:15:07.114Z,1.50
2018-02-23T18:17:36.113Z,1.40
2018-02-23T18:20:06.391Z,1.50
2018-02-23T18:22:58.894Z,1.40
2018-02-23T18:25:33.080Z,1.30
2018-02-23T18:28:01.361Z,1.30
2018-02-23T18:30:30.410Z,1.40
2018-02-23T18:32:59.007Z,1.40
2018-02-23T18:35:28.060Z,1.30
2018-02-23T18:37:57.476Z,1.20
2018-02-23T18:40:28.617Z,1.30
2018-02-23T18:43:01.201Z,1.40
2018-02-23T18:45:30.709Z,1.50
2018-02-23T18:48:00.767Z,1.40
2018-02-23T18:50:30.591Z,1.40
2018-02-23T18:52:59.138Z,1.40
2018-02-23T18:55:27.407Z,1.40
2018-02-23T18:57:56.148Z,1.20
2018-02-23T19:00:25.064Z,1.10
2018-02-23T19:02:53.339Z,1.00
2018-02-23T19:05:27.396Z,0.90
2018-02-23T19:07:57.462Z,1.00
2018-02-23T19:10:28.174Z,0.90
2018-02-23T19:12:56.457Z,0.70
2018-02-23T19:15:25.042Z,0.60
2018-02-23T19:17:53.317Z,0.80
2018-02-23T19:20:22.894Z,0.80
2018-02-23T19:22:57.176Z,0.90
2018-02-23T19:25:30.520Z,0.90
2018-02-23T19:28:00.212Z,0.90
2018-02-23T19:30:28.485Z,0.80
2018-02-23T19:32:57.711Z,0.70
2018-02-23T19:35:26.596Z,0.70
2018-02-23T19:37:54.879Z,0.80
2018-02-23T19:40:23.143Z,0.80
2018-02-23T19:42:55.940Z,0.60
2018-02-23T19:45:26.087Z,0.50
2018-02-23T19:48:00.222Z,0.40
2018-02-23T19:50:28.498Z,0.50
2018-02-23T19:52:59.292Z,0.40
2018-02-23T19:55:31.403Z,0.40
2018-02-23T19:58:02.747Z,0.40
2018-02-23T20:00:31.103Z,0.40
2018-02-23T20:03:04.744Z,0.30
2018-02-23T20:05:36.459Z,0.40
2018-02-23T20:08:07.711Z,0.30
2018-02-23T20:10:37.254Z,0.40
2018-02-23T20:13:06.123Z,0.40
2018-02-23T20:15:34.408Z,0.60
2018-02-23T20:18:04.617Z,0.60
2018-02-23T20:20:34.387Z,0.60
2018-02-23T20:23:02.678Z,0.50
2018-02-23T20:25:30.965Z,0.30
2018-02-23T20:27:59.237Z,0.30
2018-02-23T20:30:29.065Z,0.30
2018-02-23T20:33:05.432Z,0.30
2018-02-23T20:35:41.055Z,0.20
2018-02-23T20:38:13.179Z,0.10
2018-02-23T20:40:48.460Z,0.30
2018-02-23T20:43:17.039Z,0.30
2018-02-23T20:45:46.089Z,0.20
2018-02-23T20:48:14.374Z,0.20
2018-02-23T20:50:43.054Z,0.20
2018-02-23T20:53:11.480Z,0.10
2018-02-23T20:59:23.452Z,-0.10
2018-02-23T21:01:51.858Z,0.00
2018-02-23T21:04:20.156Z,0.20
2018-02-23T21:06:48.443Z,0.20
2018-02-23T21:09:16.739Z,0.10
2018-02-23T21:11:59.138Z,0.20
2018-02-23T21:14:27.948Z,0.20
2018-02-23T21:16:56.281Z,0.20
2018-02-23T21:19:27.116Z,0.20
2018-02-23T21:22:07.415Z,0.30
2018-02-23T21:24:41.759Z,0.40
2018-02-23T21:27:14.531Z,0.40
2018-02-23T21:29:48.319Z,0.30
2018-02-23T21:32:19.056Z,0.20
2018-02-23T21:34:47.394Z,0.20
2018-02-23T21:37:15.703Z,0.30
2018-02-23T21:39:43.988Z,0.40
2018-02-23T21:42:13.271Z,0.50
2018-02-23T21:44:47.407Z,0.50
2018-02-23T21:47:20.934Z,0.40
2018-02-23T21:49:54.873Z,0.40
2018-02-23T21:52:26.959Z,0.30
2018-02-23T21:54:55.754Z,0.30
2018-02-23T21:57:24.029Z,0.40
2018-02-23T21:59:52.304Z,0.30
2018-02-23T22:02:23.366Z,0.30
2018-02-23T22:05:06.740Z,0.20
2018-02-23T22:07:35.022Z,0.20
2018-02-23T22:10:07.695Z,0.30
2018-02-23T22:12:58.304Z,0.20
2018-02-23T22:15:26.573Z,0.30
2018-02-23T22:17:55.031Z,0.30
2018-02-23T22:20:25.257Z,0.30
2018-02-23T22:22:53.958Z,0.30
2018-02-23T22:25:22.752Z,0.30
2018-02-23T22:27:52.535Z,0.20
2018-02-23T22:30:24.689Z,0.30
2018-02-23T22:32:55.395Z,0.30
2018-02-23T22:35:24.831Z,0.10
2018-02-23T22:37:53.116Z,0.10
2018-02-23T22:40:22.637Z,0.10
2018-02-23T22:42:51.069Z,0.00
2018-02-23T22:45:19.372Z,0.00
2018-02-23T22:47:48.967Z,-0.10
2018-02-23T22:50:17.943Z,-0.20
2018-02-23T22:52:46.506Z,-0.10
2018-02-23T22:55:20.340Z,-0.20
2018-02-23T22:57:53.113Z,-0.20
2018-02-23T23:00:22.609Z,-0.20
2018-02-23T23:02:50.931Z,-0.20
2018-02-23T23:05:19.219Z,-0.20
2018-02-23T23:07:47.510Z,-0.30
2018-02-23T23:10:16.275Z,-0.20
2018-02-23T23:12:46.742Z,-0.20
2018-02-23T23:15:15.019Z,-0.30
2018-02-23T23:17:44.737Z,-0.40
2018-02-23T23:20:13.711Z,-0.40
2018-02-23T23:22:44.506Z,-0.50
2018-02-23T23:25:13.105Z,-0.40
2018-02-23T23:27:47.949Z,-0.50
2018-02-23T23:30:19.094Z,-0.40
2018-02-23T23:32:47.405Z,-0.40
2018-02-23T23:35:15.701Z,-0.40
2018-02-23T23:37:45.344Z,-0.40
2018-02-23T23:40:16.334Z,-0.40
2018-02-23T23:42:58.661Z,-0.50
2018-02-23T23:45:26.957Z,-0.60
2018-02-23T23:47:58.971Z,-0.50
2018-02-23T23:50:28.017Z,-0.50
2018-02-23T23:52:56.749Z,-0.70
2018-02-23T23:55:26.096Z,-0.80
2018-02-23T23:57:55.286Z,-0.90
